createdAt,value
2023-03-11T00:00:47.263Z,0.80
2023-03-11T00:03:15.323Z,1.10
2023-03-11T00:05:44.605Z,1.00
2023-03-11T00:08:20.377Z,1.10
2023-03-11T00:10:48.754Z,1.50
2023-03-11T00:13:16.624Z,1.40
2023-03-11T00:15:46.058Z,2.10
2023-03-11T00:18:13.179Z,2.10
2023-03-11T00:20:42.402Z,1.30
2023-03-11T00:23:09.587Z,1.70
2023-03-11T00:25:37.786Z,1.20
2023-03-11T00:28:07.243Z,1.50
2023-03-11T00:30:34.398Z,2.00
2023-03-11T00:33:01.328Z,1.90
2023-03-11T00:35:31.642Z,1.80
2023-03-11T00:38:01.443Z,1.30
2023-03-11T00:40:30.696Z,2.50
2023-03-11T00:42:58.537Z,1.50
2023-03-11T00:45:26.508Z,1.70
2023-03-11T00:47:54.171Z,1.50
2023-03-11T00:50:26.767Z,1.50
2023-03-11T00:52:54.316Z,1.70
2023-03-11T00:55:26.950Z,1.70
2023-03-11T00:57:56.388Z,1.40
2023-03-11T01:00:24.088Z,1.30
2023-03-11T01:02:53.049Z,1.90
2023-03-11T01:05:22.019Z,1.70
2023-03-11T01:07:49.358Z,2.00
2023-03-11T01:10:16.895Z,2.00
2023-03-11T01:12:44.056Z,2.00
2023-03-11T01:15:18.691Z,2.10
2023-03-11T01:20:13.907Z,1.70
2023-03-11T01:22:40.815Z,1.60
2023-03-11T01:25:09.977Z,1.20
2023-03-11T01:27:36.748Z,1.00
2023-03-11T01:30:04.620Z,1.40
2023-03-11T01:32:31.465Z,1.60
2023-03-11T01:34:58.251Z,1.00
2023-03-11T01:37:25.800Z,1.00
2023-03-11T01:39:52.446Z,0.90
2023-03-11T01:42:19.184Z,1.30
2023-03-11T01:44:45.925Z,1.00
2023-03-11T01:47:13.180Z,1.20
2023-03-11T01:49:42.225Z,1.10
2023-03-11T01:52:09.285Z,1.30
2023-03-11T01:54:39.148Z,1.20
2023-03-11T01:57:08.163Z,1.20
2023-03-11T01:59:40.153Z,1.30
2023-03-11T02:02:13.008Z,1.10
2023-03-11T02:04:40.959Z,1.30
2023-03-11T02:07:09.348Z,1.50
2023-03-11T02:09:36.292Z,2.00
2023-03-11T02:12:04.801Z,1.20
2023-03-11T02:14:31.898Z,1.30
2023-03-11T02:16:59.967Z,0.90
2023-03-11T02:19:35.861Z,0.80
2023-03-11T02:22:02.920Z,1.60
2023-03-11T02:24:39.234Z,0.90
2023-03-11T02:27:10.572Z,1.30
2023-03-11T02:29:37.827Z,1.00
2023-03-11T02:32:09.424Z,1.20
2023-03-11T02:34:38.341Z,1.60
2023-03-11T02:37:06.924Z,1.10
2023-03-11T02:39:34.997Z,1.40
2023-03-11T02:42:05.897Z,1.70
2023-03-11T02:44:33.652Z,1.30
2023-03-11T02:47:00.974Z,1.50
2023-03-11T02:49:28.121Z,1.40
2023-03-11T02:51:54.892Z,1.40
2023-03-11T02:54:24.248Z,1.80
2023-03-11T02:56:51.009Z,1.30
2023-03-11T02:59:17.857Z,0.90
2023-03-11T03:01:44.593Z,1.20
2023-03-11T03:04:11.552Z,1.10
2023-03-11T03:06:38.494Z,1.50
2023-03-11T03:09:05.391Z,1.10
2023-03-11T03:11:32.107Z,1.40
2023-03-11T03:13:59.033Z,1.00
2023-03-11T03:16:25.840Z,1.20
2023-03-11T03:18:53.041Z,1.00
2023-03-11T03:21:19.882Z,1.30
2023-03-11T03:23:46.723Z,1.60
2023-03-11T03:26:14.860Z,1.60
2023-03-11T03:28:41.857Z,1.90
2023-03-11T03:31:10.132Z,1.50
2023-03-11T03:33:37.333Z,1.20
2023-03-11T03:36:09.038Z,1.50
2023-03-11T03:38:35.801Z,1.40
2023-03-11T03:41:02.636Z,2.30
2023-03-11T03:43:29.435Z,1.20
2023-03-11T03:46:04.351Z,1.90
2023-03-11T03:48:31.309Z,1.10
2023-03-11T03:51:03.679Z,1.40
2023-03-11T03:53:31.132Z,1.40
2023-03-11T03:55:57.942Z,1.40
2023-03-11T03:58:24.686Z,1.20
2023-03-11T04:00:56.244Z,1.60
2023-03-11T04:03:23.578Z,0.90
2023-03-11T04:05:50.858Z,1.10
2023-03-11T04:08:17.804Z,1.10
2023-03-11T04:10:45.527Z,1.10
2023-03-11T04:13:12.281Z,1.30
2023-03-11T04:15:39.574Z,1.40
2023-03-11T04:18:06.434Z,1.00
2023-03-11T04:20:33.093Z,1.40
2023-03-11T04:22:59.827Z,1.40
2023-03-11T04:25:29.055Z,1.40
2023-03-11T04:27:55.863Z,1.10
2023-03-11T04:30:23.214Z,1.10
2023-03-11T04:32:50.098Z,1.00
2023-03-11T04:35:17.122Z,1.80
2023-03-11T04:37:43.971Z,1.00
2023-03-11T04:40:11.696Z,1.00
2023-03-11T04:42:39.294Z,1.10
2023-03-11T04:45:07.671Z,1.00
2023-03-11T04:47:35.536Z,1.40
2023-03-11T04:50:02.711Z,1.00
2023-03-11T04:52:29.469Z,1.00
2023-03-11T04:54:58.737Z,1.10
2023-03-11T04:57:25.599Z,1.30
2023-03-11T04:59:52.315Z,1.10
2023-03-11T05:02:21.427Z,0.70
2023-03-11T05:04:48.222Z,1.00
2023-03-11T05:07:15.135Z,0.70
2023-03-11T05:09:42.080Z,1.00
2023-03-11T05:12:11.577Z,1.20
2023-03-11T05:14:40.894Z,1.10
2023-03-11T05:17:08.338Z,0.80
2023-03-11T05:19:35.428Z,1.00
2023-03-11T05:22:04.034Z,1.00
2023-03-11T05:24:31.660Z,0.90
2023-03-11T05:26:58.495Z,0.70
2023-03-11T05:29:25.804Z,0.90
2023-03-11T05:31:52.602Z,1.20
2023-03-11T05:34:19.757Z,1.10
2023-03-11T05:36:46.599Z,1.10
2023-03-11T05:39:13.652Z,1.40
2023-03-11T05:41:40.950Z,1.30
2023-03-11T05:44:09.915Z,1.00
2023-03-11T05:46:36.832Z,0.90
2023-03-11T05:49:03.899Z,0.80
2023-03-11T05:51:30.855Z,1.00
2023-03-11T05:53:58.774Z,0.90
2023-03-11T05:56:25.685Z,0.80
2023-03-11T05:58:52.518Z,0.70
2023-03-11T06:01:20.841Z,0.90
2023-03-11T06:03:47.807Z,0.80
2023-03-11T06:06:15.008Z,1.60
2023-03-11T06:08:49.821Z,1.20
2023-03-11T06:11:17.605Z,0.90
2023-03-11T06:13:44.437Z,1.00
2023-03-11T06:16:11.903Z,1.50
2023-03-11T06:18:38.856Z,1.30
2023-03-11T06:21:05.901Z,1.20
2023-03-11T06:23:33.009Z,1.00
2023-03-11T06:26:01.839Z,0.90
2023-03-11T06:28:29.418Z,1.30
2023-03-11T06:30:59.238Z,2.20
2023-03-11T06:33:26.171Z,1.50
2023-03-11T06:36:00.001Z,1.20
2023-03-11T06:38:27.484Z,0.90
2023-03-11T06:40:54.385Z,1.20
2023-03-11T06:43:22.460Z,1.00
2023-03-11T06:45:49.281Z,1.30
2023-03-11T06:48:16.359Z,2.30
2023-03-11T06:50:43.239Z,1.20
2023-03-11T06:53:11.263Z,1.20
2023-03-11T06:55:37.957Z,1.50
2023-03-11T06:58:07.327Z,1.70
2023-03-11T07:00:34.190Z,1.20
2023-03-11T07:03:01.131Z,1.40
2023-03-11T07:05:27.979Z,2.40
2023-03-11T07:07:55.756Z,1.10
2023-03-11T07:10:23.114Z,1.30
2023-03-11T07:12:50.052Z,1.50
2023-03-11T07:15:16.904Z,1.10
2023-03-11T07:17:43.747Z,1.20
2023-03-11T07:20:11.431Z,1.30
2023-03-11T07:22:38.258Z,1.40
2023-03-11T07:25:05.642Z,1.60
2023-03-11T07:27:32.465Z,1.20
2023-03-11T07:30:01.766Z,1.30
2023-03-11T07:32:28.807Z,1.20
2023-03-11T07:34:55.709Z,1.20
2023-03-11T07:37:25.382Z,1.30
2023-03-11T07:39:52.143Z,1.20
2023-03-11T07:42:21.842Z,1.60
2023-03-11T07:44:51.869Z,1.00
2023-03-11T07:47:18.628Z,1.40
2023-03-11T07:49:45.541Z,1.00
2023-03-11T07:52:15.162Z,1.90
2023-03-11T07:54:41.906Z,1.60
2023-03-11T07:57:13.103Z,1.20
2023-03-11T07:59:39.889Z,1.60
2023-03-11T08:02:07.221Z,1.40
2023-03-11T08:04:34.092Z,1.30
2023-03-11T08:07:00.940Z,1.40
2023-03-11T08:09:27.667Z,1.50
2023-03-11T08:11:54.837Z,1.50
2023-03-11T08:14:21.640Z,1.30
2023-03-11T08:16:48.432Z,1.10
2023-03-11T08:19:17.540Z,1.10
2023-03-11T08:21:46.831Z,1.10
2023-03-11T08:24:14.349Z,1.00
2023-03-11T08:26:41.383Z,1.00
2023-03-11T08:29:08.194Z,1.00
2023-03-11T08:31:35.498Z,1.00
2023-03-11T08:34:08.242Z,1.30
2023-03-11T08:36:35.470Z,1.20
2023-03-11T08:39:04.709Z,1.70
2023-03-11T08:41:31.567Z,1.50
2023-03-11T08:43:58.365Z,1.50
2023-03-11T08:46:32.466Z,1.70
2023-03-11T08:49:01.303Z,1.50
2023-03-11T08:51:29.766Z,1.10
2023-03-11T08:53:56.609Z,1.20
2023-03-11T08:56:23.670Z,1.00
2023-03-11T08:58:51.075Z,0.80
2023-03-11T09:01:18.380Z,1.20
2023-03-11T09:03:45.224Z,0.80
2023-03-11T09:06:17.399Z,1.00
2023-03-11T09:08:45.944Z,1.20
2023-03-11T09:11:13.732Z,1.40
2023-03-11T09:13:41.720Z,1.00
2023-03-11T09:16:20.360Z,1.00
2023-03-11T09:18:47.205Z,1.10
2023-03-11T09:21:14.116Z,1.40
2023-03-11T09:23:44.025Z,0.90
2023-03-11T09:26:11.883Z,0.70
2023-03-11T09:28:39.236Z,1.30
2023-03-11T09:31:06.436Z,1.20
2023-03-11T09:33:40.135Z,1.20
2023-03-11T09:36:08.036Z,0.70
2023-03-11T09:38:34.793Z,0.60
2023-03-11T09:41:27.806Z,0.80
2023-03-11T09:44:25.510Z,0.90
2023-03-11T09:47:17.386Z,1.00
2023-03-11T09:50:08.686Z,0.60
2023-03-11T09:52:38.384Z,0.60
2023-03-11T09:55:07.561Z,0.70
2023-03-11T09:57:38.834Z,0.90
2023-03-11T10:00:06.927Z,0.60
2023-03-11T10:02:37.063Z,0.60
2023-03-11T10:05:10.165Z,0.70
2023-03-11T10:07:42.182Z,0.50
2023-03-11T10:10:14.054Z,0.60
2023-03-11T10:12:46.957Z,0.70
2023-03-11T10:15:22.213Z,0.80
2023-03-11T10:18:08.224Z,0.90
2023-03-11T10:20:40.923Z,1.00
2023-03-11T10:23:11.058Z,0.50
2023-03-11T10:25:54.061Z,0.80
2023-03-11T10:28:24.814Z,0.80
2023-03-11T10:30:58.253Z,1.40
2023-03-11T10:33:28.548Z,0.70
2023-03-11T10:35:58.427Z,0.70
2023-03-11T10:38:29.097Z,0.60
2023-03-11T10:40:58.496Z,0.40
2023-03-11T10:43:27.702Z,0.50
2023-03-11T10:45:56.946Z,0.70
2023-03-11T10:48:25.349Z,0.60
2023-03-11T10:51:12.933Z,0.60
2023-03-11T10:54:01.705Z,0.70
2023-03-11T10:56:37.304Z,0.60
2023-03-11T10:59:06.774Z,0.60
2023-03-11T11:01:33.905Z,0.40
2023-03-11T11:04:01.882Z,0.70
2023-03-11T11:06:29.783Z,0.50
2023-03-11T11:09:21.990Z,0.40
2023-03-11T11:12:05.590Z,0.60
2023-03-11T11:14:52.669Z,0.70
2023-03-11T11:17:24.927Z,0.40
2023-03-11T11:19:53.202Z,0.80
2023-03-11T11:22:21.783Z,0.60
2023-03-11T11:24:51.463Z,0.40
2023-03-11T11:27:20.494Z,0.60
2023-03-11T11:29:49.124Z,0.80
2023-03-11T11:32:19.492Z,0.70
2023-03-11T11:35:12.483Z,0.50
2023-03-11T11:37:47.172Z,0.60
2023-03-11T11:40:28.322Z,0.50
2023-03-11T11:43:01.036Z,0.70
2023-03-11T11:45:35.746Z,0.60
2023-03-11T11:48:33.026Z,0.40
2023-03-11T11:51:01.836Z,0.50
2023-03-11T11:53:33.238Z,0.60
2023-03-11T11:56:00.387Z,0.60
2023-03-11T11:58:48.726Z,0.70
2023-03-11T12:01:25.501Z,0.50
2023-03-11T12:04:02.426Z,0.70
2023-03-11T12:06:54.787Z,0.60
2023-03-11T12:09:52.778Z,0.30
2023-03-11T12:12:47.462Z,0.80
2023-03-11T12:15:26.784Z,0.60
2023-03-11T12:18:00.984Z,0.60
2023-03-11T12:20:36.123Z,0.60
2023-03-11T12:23:19.115Z,0.80
2023-03-11T12:25:56.025Z,0.70
2023-03-11T12:28:38.185Z,0.80
2023-03-11T12:31:09.707Z,0.60
2023-03-11T12:33:53.625Z,0.70
2023-03-11T12:36:32.228Z,0.50
2023-03-11T12:39:00.720Z,0.80
2023-03-11T12:41:31.247Z,0.50
2023-03-11T12:44:18.249Z,0.80
2023-03-11T12:46:53.986Z,0.50
2023-03-11T12:49:30.747Z,0.50
2023-03-11T12:52:12.425Z,0.80
2023-03-11T12:54:42.065Z,0.80
2023-03-11T12:57:17.129Z,1.20
2023-03-11T12:59:54.907Z,0.80
2023-03-11T13:02:36.964Z,0.60
2023-03-11T13:05:38.025Z,0.70
2023-03-11T13:08:19.547Z,0.80
2023-03-11T13:10:48.012Z,0.70
2023-03-11T13:13:35.509Z,0.60
2023-03-11T13:16:14.905Z,0.70
2023-03-11T13:18:46.906Z,0.50
2023-03-11T13:21:32.084Z,0.80
2023-03-11T13:24:26.126Z,0.40
2023-03-11T13:27:03.360Z,0.50
2023-03-11T13:29:37.341Z,0.70
2023-03-11T13:32:22.525Z,0.40
2023-03-11T13:35:11.606Z,0.70
2023-03-11T13:38:00.514Z,1.10
2023-03-11T13:40:40.229Z,0.60
2023-03-11T13:43:21.012Z,0.70
2023-03-11T13:46:07.426Z,0.70
2023-03-11T13:48:48.189Z,0.80
2023-03-11T13:51:24.526Z,0.50
2023-03-11T13:54:04.592Z,0.60
2023-03-11T13:56:33.437Z,0.60
2023-03-11T13:59:23.668Z,0.70
2023-03-11T14:02:00.215Z,1.00
2023-03-11T14:04:36.252Z,0.50
2023-03-11T14:07:20.065Z,0.60
2023-03-11T14:09:47.026Z,0.60
2023-03-11T14:12:14.121Z,0.70
2023-03-11T14:15:01.128Z,0.80
2023-03-11T14:17:27.951Z,0.80
2023-03-11T14:20:12.140Z,0.50
2023-03-11T14:22:39.346Z,0.50
2023-03-11T14:25:10.825Z,0.70
2023-03-11T14:27:39.388Z,0.80
2023-03-11T14:30:06.989Z,0.80
2023-03-11T14:32:35.191Z,1.00
2023-03-11T14:35:02.013Z,0.60
2023-03-11T14:37:37.243Z,0.60
2023-03-11T14:40:18.437Z,0.90
2023-03-11T14:42:47.112Z,0.70
2023-03-11T14:45:16.546Z,0.90
2023-03-11T14:47:59.953Z,1.20
2023-03-11T14:50:32.829Z,0.60
2023-03-11T14:53:05.191Z,0.80
2023-03-11T14:55:46.499Z,0.90
2023-03-11T14:58:14.749Z,0.90
2023-03-11T15:00:48.461Z,0.90
2023-03-11T15:03:34.365Z,0.70
2023-03-11T15:06:03.344Z,0.70
2023-03-11T15:08:34.470Z,0.70
2023-03-11T15:11:11.257Z,1.10
2023-03-11T15:16:08.100Z,0.80
2023-03-11T15:18:37.892Z,0.60
2023-03-11T15:21:17.936Z,0.80
2023-03-11T15:23:50.350Z,1.20
2023-03-11T15:26:22.212Z,0.80
2023-03-11T15:29:00.708Z,0.80
2023-03-11T15:31:31.433Z,0.80
2023-03-11T15:34:32.181Z,1.00
2023-03-11T15:37:01.617Z,0.90
2023-03-11T15:39:31.320Z,1.10
2023-03-11T15:42:03.545Z,0.80
2023-03-11T15:44:41.677Z,0.80
2023-03-11T15:47:19.887Z,0.70
2023-03-11T15:49:47.757Z,0.70
2023-03-11T15:52:15.013Z,0.70
2023-03-11T15:54:44.215Z,0.70
2023-03-11T15:57:23.747Z,0.60
2023-03-11T15:59:51.353Z,0.80
2023-03-11T16:02:24.522Z,0.70
2023-03-11T16:04:51.893Z,0.80
2023-03-11T16:07:32.767Z,0.80
2023-03-11T16:10:09.950Z,0.90
2023-03-11T16:12:40.228Z,0.90
2023-03-11T16:15:11.022Z,0.90
2023-03-11T16:17:49.470Z,1.00
2023-03-11T16:20:21.282Z,0.60
2023-03-11T16:22:49.267Z,1.00
2023-03-11T16:25:36.748Z,0.80
2023-03-11T16:28:04.711Z,0.80
2023-03-11T16:30:33.610Z,0.60
2023-03-11T16:33:04.546Z,0.80
2023-03-11T16:35:33.097Z,0.80
2023-03-11T16:38:00.283Z,0.70
2023-03-11T16:40:29.218Z,0.90
2023-03-11T16:43:02.293Z,0.80
2023-03-11T16:45:29.333Z,1.10
2023-03-11T16:47:56.167Z,0.90
2023-03-11T16:50:26.940Z,0.90
2023-03-11T16:52:55.623Z,0.80
2023-03-11T16:55:23.096Z,1.10
2023-03-11T16:57:52.061Z,1.00
2023-03-11T17:00:19.115Z,0.90
2023-03-11T17:02:45.958Z,0.80
2023-03-11T17:05:13.139Z,1.10
2023-03-11T17:07:40.470Z,0.90
2023-03-11T17:10:09.267Z,0.90
2023-03-11T17:12:36.829Z,1.20
2023-03-11T17:15:05.585Z,1.00
2023-03-11T17:17:32.339Z,0.90
2023-03-11T17:19:59.047Z,1.10
2023-03-11T17:22:25.863Z,1.20
2023-03-11T17:24:54.849Z,1.10
2023-03-11T17:27:21.694Z,1.60
2023-03-11T17:29:48.449Z,1.20
2023-03-11T17:32:17.709Z,1.30
2023-03-11T17:34:44.818Z,1.10
2023-03-11T17:37:11.739Z,1.40
2023-03-11T17:39:38.700Z,2.60
2023-03-11T17:42:05.948Z,3.00
2023-03-11T17:44:48.395Z,3.30
2023-03-11T17:47:20.037Z,2.70
2023-03-11T17:49:49.660Z,3.20
2023-03-11T17:52:16.515Z,2.70
2023-03-11T17:54:46.026Z,2.70
2023-03-11T17:57:14.970Z,2.60
2023-03-11T17:59:41.724Z,2.60
2023-03-11T18:02:10.348Z,2.30
2023-03-11T18:04:39.024Z,2.80
2023-03-11T18:07:05.834Z,2.70
2023-03-11T18:09:32.677Z,3.20
2023-03-11T18:11:59.626Z,3.50
2023-03-11T18:14:26.585Z,3.80
2023-03-11T18:16:53.522Z,3.80
2023-03-11T18:19:20.443Z,4.70
2023-03-11T18:21:47.330Z,4.60
2023-03-11T18:24:14.080Z,4.40
2023-03-11T18:26:40.919Z,4.20
2023-03-11T18:29:07.757Z,4.30
2023-03-11T18:31:34.631Z,4.60
2023-03-11T18:34:03.904Z,4.10
2023-03-11T18:36:33.664Z,4.60
2023-03-11T18:39:01.505Z,4.40
2023-03-11T18:41:31.675Z,5.00
2023-03-11T18:43:59.190Z,5.60
2023-03-11T18:46:28.998Z,6.30
2023-03-11T18:48:57.792Z,5.30
2023-03-11T18:51:32.414Z,5.60
2023-03-11T18:56:31.182Z,6.30
2023-03-11T18:58:58.987Z,7.30
2023-03-11T19:01:27.540Z,6.10
2023-03-11T19:03:59.058Z,7.10
2023-03-11T19:06:28.698Z,8.00
2023-03-11T19:08:57.061Z,7.90
2023-03-11T19:11:25.272Z,9.00
2023-03-11T19:13:52.668Z,9.30
2023-03-11T19:16:22.690Z,9.60
2023-03-11T19:18:55.236Z,8.70
2023-03-11T19:21:22.826Z,8.40
2023-03-11T19:23:52.329Z,9.00
2023-03-11T19:26:19.088Z,8.50
2023-03-11T19:28:45.925Z,8.30
2023-03-11T19:31:13.257Z,7.90
2023-03-11T19:33:40.095Z,7.60
2023-03-11T19:36:07.696Z,7.80
2023-03-11T19:38:35.149Z,7.80
2023-03-11T19:41:06.407Z,7.80
2023-03-11T19:43:35.775Z,7.40
2023-03-11T19:46:04.244Z,7.00
2023-03-11T19:48:32.178Z,8.40
2023-03-11T19:50:59.216Z,12.50
2023-03-11T19:53:27.148Z,12.40
2023-03-11T19:55:55.959Z,13.90
2023-03-11T19:58:24.135Z,16.20
2023-03-11T20:00:51.297Z,16.10
2023-03-11T20:03:18.885Z,13.80
2023-03-11T20:05:46.858Z,14.10
2023-03-11T20:08:16.466Z,14.60
2023-03-11T20:10:45.591Z,13.90
2023-03-11T20:13:12.902Z,12.90
2023-03-11T20:15:39.839Z,11.30
2023-03-11T20:18:09.210Z,11.10
2023-03-11T20:20:38.296Z,11.50
2023-03-11T20:23:05.524Z,10.60
2023-03-11T20:25:32.644Z,10.80
2023-03-11T20:28:00.702Z,9.80
2023-03-11T20:30:28.838Z,9.30
2023-03-11T20:32:56.131Z,9.00
2023-03-11T20:35:25.975Z,9.10
2023-03-11T20:37:53.040Z,9.10
2023-03-11T20:40:19.946Z,9.20
2023-03-11T20:42:49.086Z,9.40
2023-03-11T20:45:21.834Z,9.50
2023-03-11T20:47:49.945Z,8.10
2023-03-11T20:50:17.760Z,8.20
2023-03-11T20:52:44.767Z,8.60
2023-03-11T20:55:12.660Z,8.80
2023-03-11T20:57:40.140Z,8.50
2023-03-11T21:00:11.593Z,9.40
2023-03-11T21:02:39.643Z,9.40
2023-03-11T21:05:08.321Z,9.50
2023-03-11T21:07:35.625Z,9.50
2023-03-11T21:10:05.582Z,8.70
2023-03-11T21:12:34.891Z,9.40
2023-03-11T21:15:01.798Z,9.90
2023-03-11T21:17:28.960Z,9.60
2023-03-11T21:19:55.918Z,9.20
2023-03-11T21:22:22.720Z,9.80
2023-03-11T21:24:54.067Z,8.10
2023-03-11T21:27:26.752Z,8.00
2023-03-11T21:29:55.569Z,7.60
2023-03-11T21:32:23.591Z,7.00
2023-03-11T21:34:51.013Z,7.50
2023-03-11T21:37:17.896Z,7.10
2023-03-11T21:39:44.930Z,7.30
2023-03-11T21:42:11.788Z,6.90
2023-03-11T21:44:38.719Z,7.60
2023-03-11T21:47:05.693Z,6.60
2023-03-11T21:49:32.578Z,6.50
2023-03-11T21:52:02.124Z,6.80
2023-03-11T21:54:29.526Z,6.20
2023-03-11T21:56:56.588Z,6.50
2023-03-11T21:59:25.478Z,7.10
2023-03-11T22:01:53.310Z,6.30
2023-03-11T22:04:20.285Z,7.20
2023-03-11T22:06:47.316Z,6.00
2023-03-11T22:09:14.300Z,6.90
2023-03-11T22:11:41.266Z,9.20
2023-03-11T22:14:08.225Z,9.40
2023-03-11T22:16:35.763Z,9.40
2023-03-11T22:19:04.592Z,11.10
2023-03-11T22:21:31.372Z,10.40
2023-03-11T22:23:58.425Z,10.60
2023-03-11T22:26:25.362Z,9.30
2023-03-11T22:28:52.178Z,10.40
2023-03-11T22:31:19.131Z,9.60
2023-03-11T22:33:46.529Z,9.20
2023-03-11T22:36:13.441Z,8.60
2023-03-11T22:38:42.285Z,8.60
2023-03-11T22:41:09.220Z,8.40
2023-03-11T22:43:36.778Z,7.60
2023-03-11T22:46:05.072Z,7.80
2023-03-11T22:48:32.966Z,8.40
2023-03-11T22:51:00.389Z,6.40
2023-03-11T22:53:29.788Z,6.60
2023-03-11T22:55:56.650Z,6.60
2023-03-11T22:58:23.792Z,5.90
2023-03-11T23:00:50.750Z,6.30
2023-03-11T23:03:17.688Z,6.10
2023-03-11T23:05:46.070Z,6.00
2023-03-11T23:08:15.300Z,6.00
2023-03-11T23:10:44.410Z,6.20
2023-03-11T23:13:11.731Z,5.90
2023-03-11T23:15:45.638Z,6.10
2023-03-11T23:18:13.728Z,6.40
2023-03-11T23:20:41.958Z,6.40
2023-03-11T23:23:09.455Z,6.40
2023-03-11T23:25:36.513Z,5.00
2023-03-11T23:28:04.687Z,5.20
2023-03-11T23:30:34.760Z,4.90
2023-03-11T23:33:03.157Z,5.00
2023-03-11T23:35:31.092Z,4.80
2023-03-11T23:37:58.417Z,4.80
2023-03-11T23:40:25.568Z,5.00
2023-03-11T23:42:52.628Z,5.10
2023-03-11T23:45:19.577Z,4.70
2023-03-11T23:47:46.417Z,4.70
2023-03-11T23:50:13.267Z,4.50
2023-03-11T23:52:40.333Z,4.30
2023-03-11T23:55:07.891Z,4.50
2023-03-11T23:57:36.473Z,4.10
